Time;durP1;ratioP1;P1;durP2;ratioP2;P2;SDS_P1;SDS_P2;PMS_P1;PMS_P2;Temp;Humidity;BMP_temperature;BMP_pressure;BME280_temperature;BME280_humidity;BME280_pressure;Samples;Min_cycle;Max_cycle;Signal;HPM_P1;HPM_P2
2022/08/09 00:01:51;;;;;;;26.13;11.40;;;;;;;16.66;100.00;102332.53;5097117;28;20036;-76
2022/08/09 00:04:20;;;;;;;26.98;10.43;;;;;;;16.66;100.00;102323.31;5043148;28;20036;-75
2022/08/09 00:06:51;;;;;;;23.70;11.17;;;;;;;16.64;100.00;102325.34;5090568;28;20025;-75
2022/08/09 00:09:20;;;;;;;29.63;11.23;;;;;;;16.59;100.00;102328.47;5057928;28;20305;-75
2022/08/09 00:11:50;;;;;;;21.42;11.57;;;;;;;16.53;100.00;102315.19;5078676;28;20107;-74
2022/08/09 00:14:21;;;;;;;28.92;11.27;;;;;;;16.51;100.00;102322.69;5078826;28;20052;-75
2022/08/09 00:16:55;;;;;;;28.50;11.70;;;;;;;16.50;100.00;102327.34;5077410;28;20044;-75
2022/08/09 00:19:21;;;;;;;25.52;10.70;;;;;;;16.48;100.00;102320.22;5060927;28;20031;-75
2022/08/09 00:21:54;;;;;;;31.17;11.23;;;;;;;16.41;100.00;102313.38;5059839;28;20162;-75
2022/08/09 00:24:21;;;;;;;19.92;10.68;;;;;;;16.48;100.00;102317.44;5066768;28;20071;-75
2022/08/09 00:26:49;;;;;;;33.67;11.40;;;;;;;16.40;100.00;102314.38;5076885;28;20032;-76
2022/08/09 00:29:15;;;;;;;22.27;11.55;;;;;;;16.30;100.00;102322.56;5077396;28;20050;-76
2022/08/09 00:31:40;;;;;;;25.17;11.50;;;;;;;16.28;100.00;102321.78;5096461;28;20145;-75
2022/08/09 00:34:06;;;;;;;22.05;11.05;;;;;;;16.27;100.00;102318.16;5076142;28;20036;-75
2022/08/09 00:36:34;;;;;;;28.98;11.73;;;;;;;16.31;100.00;102314.13;5042958;28;20146;-75
2022/08/09 00:39:03;;;;;;;27.00;11.05;;;;;;;16.27;100.00;102326.44;5078359;28;20058;-75
2022/08/09 00:41:32;;;;;;;31.38;11.85;;;;;;;16.23;100.00;102307.44;5076960;28;20044;-75
2022/08/09 00:44:03;;;;;;;28.00;11.55;;;;;;;16.26;100.00;102326.56;5092909;28;20040;-75
2022/08/09 00:46:37;;;;;;;29.83;11.93;;;;;;;16.19;100.00;102323.41;5079592;28;20036;-76
2022/08/09 00:49:03;;;;;;;31.15;11.55;;;;;;;16.24;100.00;102318.38;5076206;28;20144;-75
2022/08/09 00:51:28;;;;;;;26.88;11.25;;;;;;;16.22;100.00;102319.53;5077402;28;20044;-75
2022/08/09 00:53:58;;;;;;;27.45;11.85;;;;;;;16.21;100.00;102313.09;5057602;28;20036;-74
2022/08/09 00:56:23;;;;;;;37.70;11.32;;;;;;;16.19;100.00;102319.78;5042936;28;20145;-76
2022/08/09 00:58:59;;;;;;;24.45;11.07;;;;;;;16.24;100.00;102320.28;5093560;28;20626;-75
2022/08/09 01:01:33;;;;;;;31.15;11.93;;;;;;;16.21;100.00;102321.41;5077503;28;20083;-75
2022/08/09 01:04:36;;;;;;;29.67;11.15;;;;;;;16.15;100.00;102321.88;5093452;28;20478;-74
2022/08/09 01:07:19;;;;;;;35.92;11.75;;;;;;;16.10;100.00;102321.38;5069194;28;20056;-75
2022/08/09 01:10:01;;;;;;;35.55;12.35;;;;;;;16.05;100.00;102324.50;5095150;28;20039;-75
2022/08/09 01:12:44;;;;;;;33.70;12.90;;;;;;;16.05;100.00;102326.38;5094159;28;20110;-75
2022/08/09 01:15:22;;;;;;;36.33;12.05;;;;;;;16.01;100.00;102325.75;5092661;28;20464;-76
2022/08/09 01:18:00;;;;;;;33.42;12.05;;;;;;;15.95;100.00;102338.16;5075080;28;20116;-75
2022/08/09 01:21:03;;;;;;;29.20;11.88;;;;;;;15.98;100.00;102324.09;5077027;28;20056;-75
2022/08/09 01:23:59;;;;;;;35.08;11.85;;;;;;;15.91;100.00;102328.34;5074704;28;20074;-75
2022/08/09 01:26:37;;;;;;;33.38;12.18;;;;;;;15.95;100.00;102323.47;5072178;28;20415;-76
2022/08/09 01:29:07;;;;;;;35.85;13.23;;;;;;;15.91;100.00;102333.00;5092639;28;20055;-75
2022/08/09 01:31:36;;;;;;;32.47;13.30;;;;;;;15.84;100.00;102327.06;5072303;28;20032;-75
2022/08/09 01:34:04;;;;;;;28.58;12.77;;;;;;;15.88;100.00;102327.72;5077616;28;20079;-75
2022/08/09 01:36:32;;;;;;;31.13;12.45;;;;;;;15.82;100.00;102329.06;5052999;28;20050;-76
2022/08/09 01:39:02;;;;;;;30.15;12.63;;;;;;;15.76;100.00;102324.91;5090573;28;20040;-75
2022/08/09 01:41:30;;;;;;;31.40;12.88;;;;;;;15.71;100.00;102320.69;5094526;28;20048;-76
2022/08/09 01:44:08;;;;;;;38.63;12.68;;;;;;;15.71;100.00;102321.59;5090660;28;20411;-74
2022/08/09 01:46:40;;;;;;;31.60;13.60;;;;;;;15.63;100.00;102324.94;5093783;28;20109;-75
2022/08/09 01:49:14;;;;;;;34.40;12.73;;;;;;;15.68;100.00;102318.19;5093868;28;20027;-73
2022/08/09 01:51:55;;;;;;;23.10;10.63;;;;;;;15.58;100.00;102323.53;5092666;28;20502;-76
2022/08/09 01:54:30;;;;;;;32.67;11.55;;;;;;;15.65;100.00;102322.06;5090621;28;20032;-76
2022/08/09 01:56:59;;;;;;;29.55;10.98;;;;;;;15.64;100.00;102317.53;5089838;28;20024;-75
2022/08/09 01:59:26;;;;;;;22.75;11.07;;;;;;;15.57;100.00;102319.00;5076387;28;20495;-74
2022/08/09 02:01:55;;;;;;;25.30;12.00;;;;;;;15.55;100.00;102318.25;5086724;28;20368;-75
2022/08/09 02:04:23;;;;;;;24.02;10.65;;;;;;;15.57;100.00;102324.53;5075910;28;20106;-75
2022/08/09 02:07:07;;;;;;;20.70;10.55;;;;;;;15.47;100.00;102324.34;5093809;28;20024;-76
2022/08/09 02:09:41;;;;;;;19.15;10.10;;;;;;;15.48;100.00;102319.69;5091347;28;20071;-75
2022/08/09 02:12:13;;;;;;;32.55;10.75;;;;;;;15.46;100.00;102313.44;5074566;28;20115;-76
2022/08/09 02:14:50;;;;;;;22.40;9.55;;;;;;;15.43;100.00;102318.19;5093445;28;20058;-77
2022/08/09 02:17:26;;;;;;;20.00;8.55;;;;;;;15.35;100.00;102312.38;5093955;28;20035;-76
2022/08/09 02:19:56;;;;;;;18.02;8.68;;;;;;;15.34;100.00;102310.59;5093354;28;20032;-75
2022/08/09 02:22:40;;;;;;;13.73;8.27;;;;;;;15.35;100.00;102320.66;5076061;28;20028;-76
2022/08/09 02:25:35;;;;;;;11.43;7.70;;;;;;;15.37;100.00;102318.66;5093063;28;20068;-75
2022/08/09 02:28:06;;;;;;;17.75;8.75;;;;;;;15.29;100.00;102312.84;5074997;28;20039;-76
2022/08/09 02:30:42;;;;;;;16.75;7.60;;;;;;;15.31;100.00;102315.47;5093605;28;20028;-76
2022/08/09 02:33:12;;;;;;;15.55;7.65;;;;;;;15.36;100.00;102316.00;5092210;28;20032;-76
2022/08/09 02:35:41;;;;;;;17.25;7.38;;;;;;;15.35;100.00;102320.66;5074488;28;20429;-76
2022/08/09 02:38:12;;;;;;;13.65;6.50;;;;;;;15.27;100.00;102323.13;5092380;28;20096;-75
2022/08/09 02:40:40;;;;;;;15.40;6.63;;;;;;;15.30;100.00;102322.88;5089684;28;20454;-77
2022/08/09 02:43:11;;;;;;;18.20;5.77;;;;;;;15.25;100.00;102320.47;5073036;28;20066;-77
2022/08/09 02:45:44;;;;;;;12.70;6.43;;;;;;;15.27;100.00;102319.50;5092903;28;20373;-76
2022/08/09 02:48:16;;;;;;;10.77;6.28;;;;;;;15.23;100.00;102316.06;5074515;28;20093;-76
2022/08/09 02:50:47;;;;;;;11.65;6.18;;;;;;;15.23;100.00;102318.81;5093418;28;20043;-75
2022/08/09 02:53:38;;;;;;;12.27;6.22;;;;;;;15.24;100.00;102318.69;5071436;28;20043;-74
2022/08/09 02:56:07;;;;;;;15.15;7.25;;;;;;;15.23;100.00;102319.72;5091681;28;20478;-76
2022/08/09 02:58:34;;;;;;;11.10;6.03;;;;;;;15.17;100.00;102317.41;5091417;28;20036;-76
2022/08/09 03:01:05;;;;;;;10.80;6.45;;;;;;;15.19;100.00;102317.28;5054535;28;20032;-77
2022/08/09 03:03:36;;;;;;;11.07;6.00;;;;;;;15.16;100.00;102309.25;5092087;28;20040;-75
2022/08/09 03:06:05;;;;;;;9.02;5.82;;;;;;;15.16;100.00;102312.88;5075692;28;20032;-77
2022/08/09 03:08:36;;;;;;;15.20;6.60;;;;;;;15.07;100.00;102313.59;5055801;28;20032;-76
2022/08/09 03:11:05;;;;;;;9.05;5.97;;;;;;;15.09;100.00;102300.56;5057937;28;20343;-76
2022/08/09 03:13:36;;;;;;;12.30;6.28;;;;;;;14.98;100.00;102311.50;5073626;28;20113;-77
2022/08/09 03:16:09;;;;;;;8.77;5.88;;;;;;;14.99;100.00;102305.88;5094184;28;20024;-76
2022/08/09 03:18:40;;;;;;;10.40;5.72;;;;;;;14.93;100.00;102299.94;5075892;28;20060;-77
2022/08/09 03:21:10;;;;;;;9.10;6.22;;;;;;;14.92;100.00;102306.44;5063990;28;20035;-75
2022/08/09 03:23:45;;;;;;;;;;;;;;;14.93;100.00;102306.31;5073039;28;20065;-75
2022/08/09 03:26:17;;;;;;;10.38;5.47;;;;;;;14.85;100.00;102317.91;5057740;28;19920;-76
2022/08/09 03:28:48;;;;;;;11.55;5.78;;;;;;;14.91;100.00;102310.22;5077946;28;20439;-76
2022/08/09 03:31:15;;;;;;;7.18;5.45;;;;;;;14.91;100.00;102312.97;5078963;28;20073;-76
2022/08/09 03:33:51;;;;;;;17.45;6.22;;;;;;;14.84;100.00;102321.69;5076658;28;20490;-77
2022/08/09 03:36:17;;;;;;;8.68;6.72;;;;;;;14.74;100.00;102319.72;5044821;28;20028;-74
2022/08/09 03:38:49;;;;;;;11.10;6.20;;;;;;;14.77;100.00;102325.00;5063569;28;20040;-75
2022/08/09 03:41:18;;;;;;;11.70;6.50;;;;;;;14.77;100.00;102320.34;5077465;28;20040;-76
2022/08/09 03:43:45;;;;;;;10.70;6.20;;;;;;;14.71;100.00;102320.84;5074179;28;20134;-75
2022/08/09 03:46:14;;;;;;;11.65;6.13;;;;;;;14.68;100.00;102312.78;5058814;28;20046;-75
2022/08/09 03:48:56;;;;;;;8.20;6.22;;;;;;;14.67;100.00;102309.13;5056932;28;20078;-76
2022/08/09 03:51:29;;;;;;;8.98;6.50;;;;;;;14.65;100.00;102313.00;5079472;28;20431;-76
2022/08/09 03:53:55;;;;;;;8.05;5.95;;;;;;;14.62;100.00;102315.97;5076375;28;20105;-76
2022/08/09 03:56:25;;;;;;;9.90;6.65;;;;;;;14.63;100.00;102309.50;5095316;28;20016;-76
2022/08/09 03:58:56;;;;;;;8.80;6.50;;;;;;;14.64;100.00;102314.00;5079151;28;20055;-76
2022/08/09 04:01:29;;;;;;;12.38;6.55;;;;;;;14.60;100.00;102315.22;5058252;28;20028;-76
2022/08/09 04:03:56;;;;;;;11.65;6.72;;;;;;;14.59;100.00;102310.66;5059527;28;20036;-76
2022/08/09 04:06:29;;;;;;;11.73;6.97;;;;;;;14.57;100.00;102312.66;5069230;28;20059;-76
2022/08/09 04:09:02;;;;;;;10.35;5.95;;;;;;;14.60;100.00;102318.84;5045473;28;20028;-74
2022/08/09 04:11:49;;;;;;;8.23;6.22;;;;;;;14.64;100.00;102320.41;5095168;28;20154;-76
2022/08/09 04:14:21;;;;;;;15.25;6.75;;;;;;;14.50;100.00;102318.59;5064677;28;20040;-75
2022/08/09 04:16:47;;;;;;;9.13;6.68;;;;;;;14.48;100.00;102315.09;5058265;28;20059;-76
2022/08/09 04:19:17;;;;;;;7.85;6.65;;;;;;;14.56;100.00;102319.16;5078407;28;20032;-76
2022/08/09 04:21:46;;;;;;;13.93;6.78;;;;;;;14.51;100.00;102313.97;5078870;28;20396;-75
2022/08/09 04:24:18;;;;;;;10.17;6.63;;;;;;;14.59;100.00;102330.84;5059002;28;20502;-73
2022/08/09 04:26:47;;;;;;;12.32;6.65;;;;;;;14.63;100.00;102331.53;5093457;28;20040;-74
2022/08/09 04:29:13;;;;;;;14.55;7.00;;;;;;;14.56;100.00;102332.94;5078831;28;20028;-76
2022/08/09 04:31:41;;;;;;;15.70;6.47;;;;;;;14.48;100.00;102337.13;5078351;28;20139;-75
2022/08/09 04:34:15;;;;;;;7.85;6.35;;;;;;;14.51;100.00;102330.50;5039305;28;20466;-75
2022/08/09 04:36:44;;;;;;;10.70;6.68;;;;;;;14.51;100.00;102336.00;5074718;28;20035;-76
2022/08/09 04:39:10;;;;;;;12.75;6.90;;;;;;;14.51;100.00;102341.53;5095171;28;20399;-74
2022/08/09 04:41:35;;;;;;;11.00;7.13;;;;;;;14.46;100.00;102336.38;5091743;28;20043;-75
2022/08/09 04:44:11;;;;;;;9.95;7.72;;;;;;;14.49;100.00;102327.88;5084590;28;20028;-75
2022/08/09 04:46:39;;;;;;;10.80;7.82;;;;;;;14.53;100.00;102339.56;5043557;28;20147;-75
2022/08/09 04:49:13;;;;;;;10.60;7.18;;;;;;;14.57;100.00;102341.09;5077402;28;20089;-74
2022/08/09 04:51:38;;;;;;;11.88;7.15;;;;;;;14.57;100.00;102338.34;5077377;28;20032;-74
2022/08/09 04:54:08;;;;;;;13.50;8.05;;;;;;;14.50;100.00;102343.41;5093241;28;20028;-74
2022/08/09 04:56:36;;;;;;;11.27;7.20;;;;;;;14.56;100.00;102353.13;5094314;28;20031;-74
2022/08/09 04:59:01;;;;;;;10.45;7.00;;;;;;;14.67;100.00;102349.59;5056799;28;20044;-74
2022/08/09 05:01:35;;;;;;;11.00;7.53;;;;;;;14.65;100.00;102351.59;5055954;28;20036;-75
2022/08/09 05:04:00;;;;;;;9.13;7.22;;;;;;;14.69;100.00;102356.78;5074684;28;20036;-75
2022/08/09 05:06:29;;;;;;;11.63;7.45;;;;;;;14.61;100.00;102352.81;5056691;28;20479;-76
2022/08/09 05:08:57;;;;;;;15.30;7.43;;;;;;;14.71;100.00;102359.44;5093535;28;20472;-74
2022/08/09 05:11:26;;;;;;;15.15;8.00;;;;;;;14.70;100.00;102360.41;5039206;28;20032;-75
2022/08/09 05:13:52;;;;;;;10.05;7.82;;;;;;;14.65;100.00;102357.13;5076251;28;20147;-76
2022/08/09 05:16:18;;;;;;;11.57;7.68;;;;;;;14.76;100.00;102362.72;5057543;28;20025;-75
2022/08/09 05:18:44;;;;;;;14.85;7.78;;;;;;;14.78;100.00;102365.38;5095605;28;20544;-75
2022/08/09 05:21:11;;;;;;;13.15;7.78;;;;;;;14.86;100.00;102366.56;5075179;28;20032;-74
2022/08/09 05:23:39;;;;;;;10.18;7.72;;;;;;;14.96;100.00;102369.53;5095386;28;20028;-75
2022/08/09 05:26:09;;;;;;;14.38;8.27;;;;;;;15.06;100.00;102369.75;5061794;28;20036;-75
2022/08/09 05:28:35;;;;;;;13.52;8.07;;;;;;;15.12;100.00;102368.41;5060337;28;20061;-75
2022/08/09 05:31:05;;;;;;;12.85;8.50;;;;;;;15.21;100.00;102364.97;5074562;28;20036;-75
2022/08/09 05:33:31;;;;;;;13.07;8.40;;;;;;;15.35;100.00;102361.19;5060179;28;20039;-76
2022/08/09 05:35:56;;;;;;;15.38;8.10;;;;;;;15.43;100.00;102361.50;5096407;28;20051;-75
2022/08/09 05:38:22;;;;;;;13.05;8.43;;;;;;;15.53;100.00;102368.06;5094710;28;20115;-76
2022/08/09 05:40:56;;;;;;;16.98;7.95;;;;;;;15.79;100.00;102371.63;5058957;28;20035;-75
2022/08/09 05:43:22;;;;;;;13.15;7.55;;;;;;;15.95;100.00;102371.31;5074951;28;20391;-76
2022/08/09 05:45:55;;;;;;;13.48;8.18;;;;;;;16.02;100.00;102370.81;5075795;28;20399;-76
2022/08/09 05:48:21;;;;;;;15.05;7.95;;;;;;;16.25;100.00;102369.91;5076108;28;20035;-75
2022/08/09 05:50:50;;;;;;;11.57;8.00;;;;;;;16.48;100.00;102370.84;5055281;28;20637;-77
2022/08/09 05:53:16;;;;;;;14.05;7.43;;;;;;;16.82;100.00;102378.28;5075787;28;20115;-75
2022/08/09 05:55:50;;;;;;;14.02;7.15;;;;;;;16.77;100.00;102375.03;5077686;28;20111;-76
2022/08/09 05:58:16;;;;;;;11.02;7.55;;;;;;;17.03;100.00;102379.31;5054833;28;20053;-75
2022/08/09 06:00:43;;;;;;;11.13;7.38;;;;;;;16.85;100.00;102386.38;5074098;28;20032;-75
2022/08/09 06:03:09;;;;;;;13.85;7.72;;;;;;;16.99;100.00;102375.06;5072090;28;20020;-74
2022/08/09 06:05:35;;;;;;;13.27;7.85;;;;;;;17.07;100.00;102391.06;5041360;28;20028;-76
2022/08/09 06:08:04;;;;;;;15.93;7.90;;;;;;;17.26;100.00;102394.03;5084974;28;20513;-75
2022/08/09 06:10:38;;;;;;;14.02;7.70;;;;;;;17.33;100.00;102387.97;5058125;28;20036;-75
2022/08/09 06:13:11;;;;;;;15.98;7.90;;;;;;;17.57;100.00;102390.59;5083674;28;20123;-76
2022/08/09 06:15:39;;;;;;;13.32;7.40;;;;;;;17.82;100.00;102392.16;5087115;28;20158;-75
2022/08/09 06:18:06;;;;;;;12.82;7.13;;;;;;;18.05;100.00;102381.88;5055529;28;20043;-75
2022/08/09 06:20:32;;;;;;;16.88;7.40;;;;;;;18.16;100.00;102381.81;5055472;28;20123;-75
2022/08/09 06:23:03;;;;;;;10.85;6.97;;;;;;;18.22;100.00;102393.38;5076375;28;20109;-75
2022/08/09 06:25:30;;;;;;;10.68;6.63;;;;;;;18.67;100.00;102391.22;5090728;28;20044;-76
2022/08/09 06:28:02;;;;;;;12.25;7.30;;;;;;;18.53;100.00;102399.91;5057386;28;20032;-76
2022/08/09 06:30:28;;;;;;;12.73;6.97;;;;;;;18.30;100.00;102402.81;5037997;28;20097;-76
2022/08/09 06:33:03;;;;;;;7.72;6.72;;;;;;;18.92;100.00;102403.84;5057786;28;20032;-76
2022/08/09 06:35:34;;;;;;;8.75;6.80;;;;;;;19.07;100.00;102407.13;5091517;28;20517;-76
2022/08/09 06:38:07;;;;;;;10.25;6.45;;;;;;;19.08;100.00;102403.28;5090022;28;20033;-76
2022/08/09 06:40:34;;;;;;;10.45;6.15;;;;;;;19.53;100.00;102412.22;5070980;28;20043;-76
2022/08/09 06:43:04;;;;;;;9.00;5.78;;;;;;;19.25;100.00;102398.09;5091471;28;20048;-76
2022/08/09 06:45:31;;;;;;;11.98;6.32;;;;;;;19.44;100.00;102394.53;5074861;28;20043;-75
2022/08/09 06:48:06;;;;;;;10.90;5.88;;;;;;;19.61;100.00;102396.63;5075783;28;20059;-75
2022/08/09 06:50:32;;;;;;;9.32;5.68;;;;;;;20.12;100.00;102410.44;5057012;28;20083;-75
2022/08/09 06:53:03;;;;;;;7.90;6.60;;;;;;;19.80;100.00;102406.03;5093225;28;20032;-75
2022/08/09 06:55:32;;;;;;;10.45;5.50;;;;;;;20.06;100.00;102408.28;5088644;28;20032;-75
2022/08/09 06:57:59;;;;;;;9.32;5.22;;;;;;;21.08;100.00;102419.69;5071645;28;20055;-75
2022/08/09 07:00:26;;;;;;;8.20;5.43;;;;;;;21.08;100.00;102413.22;5071182;28;20047;-75
2022/08/09 07:02:58;;;;;;;9.52;5.70;;;;;;;21.19;100.00;102417.75;5096502;28;20119;-75
2022/08/09 07:05:26;;;;;;;8.80;5.60;;;;;;;21.69;100.00;102417.34;5062070;28;20042;-75
2022/08/09 07:08:00;;;;;;;10.90;4.95;;;;;;;21.08;100.00;102414.09;5080566;28;20044;-75
2022/08/09 07:10:26;;;;;;;7.50;5.05;;;;;;;22.36;100.00;102414.22;5058084;28;20530;-74
2022/08/09 07:12:52;;;;;;;9.60;5.20;;;;;;;21.77;100.00;102414.66;5094994;28;20115;-75
2022/08/09 07:15:23;;;;;;;9.30;5.40;;;;;;;22.06;100.00;102416.34;5098001;28;20035;-74
2022/08/09 07:17:59;;;;;;;13.38;5.15;;;;;;;21.85;100.00;102419.44;5088480;28;20036;-74
2022/08/09 07:20:25;;;;;;;9.65;4.50;;;;;;;22.44;100.00;102425.47;5096429;28;20028;-75
2022/08/09 07:22:52;;;;;;;10.07;5.05;;;;;;;22.28;100.00;102414.97;5077838;28;20035;-76
2022/08/09 07:25:28;;;;;;;11.25;5.50;;;;;;;21.85;100.00;102413.88;5093788;28;20513;-75
2022/08/09 07:27:59;;;;;;;9.38;5.07;;;;;;;22.11;100.00;102421.47;5077226;28;20090;-76
2022/08/09 07:30:29;;;;;;;10.00;5.13;;;;;;;22.82;100.00;102417.72;5061260;28;20036;-75
2022/08/09 07:33:05;;;;;;;11.93;5.25;;;;;;;22.46;100.00;102414.13;5077916;28;20364;-75
2022/08/09 07:35:35;;;;;;;9.45;4.45;;;;;;;22.92;100.00;102428.78;5096528;28;20028;-75
2022/08/09 07:38:01;;;;;;;9.75;5.47;;;;;;;22.37;100.00;102428.03;5094383;28;20051;-75
2022/08/09 07:40:32;;;;;;;8.57;4.82;;;;;;;23.46;100.00;102426.69;5050504;28;20483;-75
2022/08/09 07:43:00;;;;;;;7.55;4.57;;;;;;;23.15;100.00;102433.84;5056556;28;20052;-76
2022/08/09 07:45:31;;;;;;;9.20;5.57;;;;;;;23.10;100.00;102431.53;5095369;28;20047;-76
2022/08/09 07:47:58;;;;;;;11.85;4.80;;;;;;;23.95;100.00;102425.97;5057593;28;20047;-76
2022/08/09 07:50:32;;;;;;;9.27;4.30;;;;;;;23.52;100.00;102430.69;5096914;28;20349;-74
2022/08/09 07:52:57;;;;;;;8.40;4.43;;;;;;;23.87;100.00;102416.69;5078202;28;20047;-75
2022/08/09 07:55:23;;;;;;;11.38;5.07;;;;;;;23.59;100.00;102423.38;5061347;28;20024;-75
2022/08/09 07:57:49;;;;;;;10.02;5.20;;;;;;;23.94;100.00;102429.81;5059095;28;20523;-76
2022/08/09 08:00:19;;;;;;;14.38;4.85;;;;;;;23.67;100.00;102428.13;5076302;28;20039;-76
2022/08/09 08:02:59;;;;;;;11.13;4.45;;;;;;;24.38;100.00;102426.75;5080542;28;20502;-77
2022/08/09 08:05:28;;;;;;;10.20;4.38;;;;;;;24.18;100.00;102422.50;5075922;28;20029;-76
2022/08/09 08:07:54;;;;;;;9.90;4.38;;;;;;;24.54;100.00;102428.63;5077923;28;20051;-75
2022/08/09 08:10:24;;;;;;;12.18;4.15;;;;;;;25.26;100.00;102441.00;5092693;28;20040;-77
2022/08/09 08:12:50;;;;;;;7.55;4.53;;;;;;;24.72;100.00;102436.03;5057647;28;20503;-76
2022/08/09 08:15:25;;;;;;;11.25;4.50;;;;;;;24.58;100.00;102426.41;5077483;28;20088;-78
2022/08/09 08:17:52;;;;;;;9.23;3.47;;;;;;;25.54;97.01;102429.34;5046142;28;20036;-77
2022/08/09 08:20:23;;;;;;;8.75;3.72;;;;;;;24.90;100.00;102431.09;5077324;28;20024;-76
2022/08/09 08:22:52;;;;;;;10.27;3.55;;;;;;;24.73;100.00;102429.38;5058677;28;20559;-77
2022/08/09 08:25:28;;;;;;;13.15;5.25;;;;;;;24.59;100.00;102429.00;5072770;28;20074;-78
2022/08/09 08:27:55;;;;;;;13.23;4.72;;;;;;;24.95;100.00;102430.56;5060295;28;20040;-77
2022/08/09 08:30:23;;;;;;;16.08;4.43;;;;;;;25.35;99.91;102439.06;5057586;28;20040;-75
2022/08/09 08:32:51;;;;;;;11.88;3.67;;;;;;;25.03;99.65;102435.28;5058659;28;20086;-75
2022/08/09 08:35:22;;;;;;;11.17;3.10;;;;;;;25.65;99.00;102435.41;5061374;28;20067;-76
2022/08/09 08:37:55;;;;;;;11.07;3.10;;;;;;;25.71;95.55;102422.59;5078622;28;20471;-77
2022/08/09 08:40:32;;;;;;;6.07;3.50;;;;;;;25.24;95.55;102429.09;5091261;28;20077;-76
2022/08/09 08:43:03;;;;;;;8.57;3.03;;;;;;;25.49;94.32;102430.75;5091876;28;20044;-76
2022/08/09 08:45:33;;;;;;;12.98;2.95;;;;;;;26.32;90.11;102430.31;5074486;28;20020;-76
2022/08/09 08:48:06;;;;;;;7.82;2.97;;;;;;;25.99;90.01;102422.09;5046739;28;20036;-75
2022/08/09 08:50:32;;;;;;;6.95;2.45;;;;;;;25.38;87.16;102425.53;5075032;28;20067;-76
2022/08/09 08:53:07;;;;;;;4.63;2.15;;;;;;;26.20;83.47;102416.69;5094833;28;20123;-76
2022/08/09 08:55:36;;;;;;;8.63;2.90;;;;;;;25.89;83.50;102427.03;5093349;28;20055;-75
2022/08/09 08:58:09;;;;;;;4.07;2.07;;;;;;;26.71;80.57;102423.66;5076902;28;20032;-76
2022/08/09 09:00:39;;;;;;;8.57;2.45;;;;;;;26.29;80.86;102425.94;5064183;28;20074;-78
2022/08/09 09:03:05;;;;;;;12.40;2.47;;;;;;;26.57;77.43;102430.97;5095314;28;20119;-77
2022/08/09 09:05:38;;;;;;;9.38;2.38;;;;;;;26.66;78.32;102428.97;5078081;28;20120;-79
2022/08/09 09:08:05;;;;;;;4.10;2.13;;;;;;;26.60;75.94;102424.97;5079599;28;20429;-78
2022/08/09 09:10:35;;;;;;;6.72;2.63;;;;;;;26.38;76.29;102437.97;5078840;28;20089;-78
2022/08/09 09:13:04;;;;;;;6.93;2.28;;;;;;;26.75;73.44;102453.13;5062913;28;20051;-77
2022/08/09 09:15:34;;;;;;;8.57;2.20;;;;;;;26.23;76.06;102437.91;5059388;28;20384;-77
2022/08/09 09:18:00;;;;;;;8.40;2.05;;;;;;;26.68;72.51;102438.06;5060349;28;20100;-77
2022/08/09 09:20:34;;;;;;;5.07;2.03;;;;;;;26.78;72.82;102441.53;5062479;28;20783;-78
2022/08/09 09:22:59;;;;;;;5.55;2.10;;;;;;;26.23;73.67;102447.19;5079680;28;20024;-78
2022/08/09 09:25:32;;;;;;;9.60;2.25;;;;;;;27.46;71.28;102450.78;5059974;28;20036;-77
2022/08/09 09:28:04;;;;;;;3.13;2.00;;;;;;;26.91;73.60;102441.72;5058331;28;20399;-78
2022/08/09 09:30:31;;;;;;;7.45;1.95;;;;;;;27.28;69.89;102453.09;5084362;28;20455;-78
2022/08/09 09:33:10;;;;;;;4.80;2.17;;;;;;;27.03;71.24;102444.06;5060371;28;20476;-78
2022/08/09 09:35:56;;;;;;;7.43;2.17;;;;;;;27.48;70.68;102445.88;5067168;28;20462;-79
2022/08/09 09:38:22;;;;;;;6.18;1.92;;;;;;;27.71;67.29;102441.16;5058955;28;20025;-78
2022/08/09 09:40:53;;;;;;;5.70;1.60;;;;;;;27.43;68.37;102448.41;5065087;28;20119;-78
2022/08/09 09:43:24;;;;;;;6.85;2.13;;;;;;;27.14;69.00;102438.84;5095719;28;20043;-78
2022/08/09 09:45:52;;;;;;;10.43;2.53;;;;;;;26.82;69.36;102433.56;5075180;28;20759;-79
2022/08/09 09:48:19;;;;;;;5.93;1.95;;;;;;;27.54;66.67;102438.56;5055027;28;20035;-78
2022/08/09 09:50:49;;;;;;;5.57;2.47;;;;;;;27.16;67.55;102438.66;5076154;28;20490;-78
2022/08/09 09:53:23;;;;;;;10.13;2.35;;;;;;;27.04;70.12;102443.88;5090076;28;20032;-78
2022/08/09 09:56:01;;;;;;;5.97;2.20;;;;;;;27.41;68.18;102438.38;5070619;28;20024;-77
2022/08/09 09:58:44;;;;;;;6.82;2.20;;;;;;;27.66;65.76;102436.13;5090296;28;20413;-77
2022/08/09 10:01:18;;;;;;;4.40;2.17;;;;;;;27.40;67.25;102439.44;5076718;28;20051;-78
2022/08/09 10:03:50;;;;;;;10.98;2.13;;;;;;;27.20;67.40;102437.19;5073331;28;20028;-79
2022/08/09 10:06:17;;;;;;;6.95;1.95;;;;;;;27.54;65.50;102440.53;5074342;28;20364;-78
2022/08/09 10:08:45;;;;;;;10.43;1.90;;;;;;;27.55;62.31;102437.50;5093787;28;20460;-78
2022/08/09 10:11:21;;;;;;;12.40;1.92;;;;;;;28.01;61.32;102440.06;5069165;28;20492;-78
2022/08/09 10:13:54;;;;;;;8.77;2.05;;;;;;;27.28;65.37;102434.28;5067654;28;20110;-78
2022/08/09 10:16:34;;;;;;;8.50;2.20;;;;;;;27.25;67.29;102437.50;5076374;28;20024;-78
2022/08/09 10:19:06;;;;;;;4.32;1.80;;;;;;;27.31;67.25;102431.09;5078224;28;20146;-79
2022/08/09 10:21:49;;;;;;;6.95;1.60;;;;;;;27.80;64.48;102423.97;5063151;28;20051;-78
2022/08/09 10:24:18;;;;;;;4.32;1.77;;;;;;;28.50;61.98;102427.13;5078841;28;20395;-79
2022/08/09 10:26:47;;;;;;;4.63;2.30;;;;;;;27.75;61.02;102432.13;5094736;28;20032;-78
2022/08/09 10:29:15;;;;;;;7.90;1.98;;;;;;;27.62;62.29;102427.19;5054124;28;20502;-79
2022/08/09 10:31:51;;;;;;;8.32;1.88;;;;;;;27.97;62.57;102435.88;5077933;28;20032;-78
2022/08/09 10:34:17;;;;;;;8.90;2.55;;;;;;;28.02;60.75;102424.91;5041574;28;20492;-78
2022/08/09 10:36:44;;;;;;;1159.93;91.88;;;;;;;28.16;62.44;102425.06;5049769;28;20017;-79
2022/08/09 10:39:12;;;;;;;118.07;8.35;;;;;;;27.88;63.09;102417.34;5094817;28;20028;-78
2022/08/09 10:41:39;;;;;;;8.82;2.30;;;;;;;27.88;63.06;102423.84;5058140;28;20048;-78
2022/08/09 10:44:08;;;;;;;9.95;2.60;;;;;;;28.10;62.05;102421.06;5072472;28;20024;-79
2022/08/09 10:47:02;;;;;;;7.10;2.42;;;;;;;27.99;60.90;102418.78;5041800;28;20037;-78
2022/08/09 10:49:45;;;;;;;11.00;2.35;;;;;;;27.78;60.11;102417.66;5073537;28;20032;-78
2022/08/09 10:52:36;;;;;;;7.35;2.50;;;;;;;27.85;60.61;102418.59;5073564;28;20357;-79
2022/08/09 10:55:19;;;;;;;7.93;3.05;;;;;;;27.96;60.71;102416.38;5039806;28;20029;-79
2022/08/09 10:57:49;;;;;;;11.05;2.88;;;;;;;27.54;61.38;102410.44;5073514;28;20585;-78
2022/08/09 11:00:27;;;;;;;9.95;2.40;;;;;;;28.15;59.25;102406.41;5073571;28;20094;-78
2022/08/09 11:02:57;;;;;;;10.60;2.95;;;;;;;27.90;61.56;102408.69;5073998;28;20028;-79
2022/08/09 11:05:31;;;;;;;10.95;2.50;;;;;;;28.12;62.05;102409.63;5074549;28;20376;-78
2022/08/09 11:08:38;;;;;;;10.82;3.22;;;;;;;28.54;59.09;102405.91;5071883;28;20032;-78
2022/08/09 11:11:04;;;;;;;15.93;2.88;;;;;;;28.15;59.63;102412.03;5073258;28;20055;-78
2022/08/09 11:13:32;;;;;;;7.43;3.00;;;;;;;27.71;60.02;102408.25;5069846;28;20482;-78
2022/08/09 11:16:31;;;;;;;12.65;2.88;;;;;;;27.89;58.90;102402.19;5054393;28;20086;-81
2022/08/09 11:19:00;;;;;;;10.73;2.63;;;;;;;27.79;61.71;102402.50;5062666;28;20040;-77
2022/08/09 11:21:50;;;;;;;14.77;3.15;;;;;;;27.87;58.61;102409.97;5056774;28;20024;-78
2022/08/09 11:24:18;;;;;;;9.95;3.45;;;;;;;27.71;59.11;102394.16;5075982;28;20036;-78
2022/08/09 11:26:49;;;;;;;11.38;3.22;;;;;;;27.58;61.38;102403.34;5072885;28;20029;-77
2022/08/09 11:29:53;;;;;;;7.50;2.60;;;;;;;27.73;61.74;102400.50;5073744;28;20032;-78
2022/08/09 11:32:39;;;;;;;10.38;3.03;;;;;;;27.80;61.24;102394.94;5072906;28;20030;-77